KGNR

Greenville Airport

Maine, USA
METAR KGNR 221656Z AUTO VRB06G15KT 21/04 A3007 RMK AO1 SLP185 T02110044
Observed Flight Rules
May-22 @ 16:56 UTC (56 minutes ago)
Wind
Variable at 6 knots
 Gusting to 15 knots
Temperatures Readings
Current 21°C / 70°F
Dewpoint 4°C / 39°F
Humidity 33%
Altimeter 30.07" Hg
Pressure 1018.5 hPa
Elevation 427
METAR KGNR 221656Z AUTO VRB06G15KT 21/04 A3007 RMK AO1 SLP185 T02110044
Observed Flight Rules
May-22 @ 16:56 UTC
(56 minutes ago)
Wind
Variable at 6 knots
 Gusting to 15 knots
Temperature Dewpoint
21°C / 70°F 4°C / 39°F
Humidity Altimeter Pressure
33% 30.07" Hg 1018.5 hPa